createdAt,value
2017-04-05T00:00:29.323Z,1009.25
2017-04-05T00:01:09.855Z,1009.25
2017-04-05T00:01:50.372Z,1009.24
2017-04-05T00:02:30.879Z,1009.26
2017-04-05T00:03:11.402Z,1009.24
2017-04-05T00:03:51.946Z,1009.26
2017-04-05T00:04:32.446Z,1009.27
2017-04-05T00:05:12.900Z,1009.27
2017-04-05T00:05:53.402Z,1009.27
2017-04-05T00:06:33.891Z,1009.24
2017-04-05T00:07:14.396Z,1009.26
2017-04-05T00:07:54.913Z,1009.23
2017-04-05T00:08:35.424Z,1009.24
2017-04-05T00:09:15.947Z,1009.19
2017-04-05T00:09:56.463Z,1009.2
2017-04-05T00:10:36.975Z,1009.23
2017-04-05T00:11:17.492Z,1009.22
2017-04-05T00:11:57.999Z,1009.17
2017-04-05T00:12:38.523Z,1009.2
2017-04-05T00:13:19.046Z,1009.19
2017-04-05T00:13:59.565Z,1009.15
2017-04-05T00:14:40.086Z,1009.15
2017-04-05T00:15:20.604Z,1009.15
2017-04-05T00:16:01.118Z,1009.18
2017-04-05T00:16:41.634Z,1009.19
2017-04-05T00:17:22.166Z,1009.1
2017-04-05T00:18:02.697Z,1009.14
2017-04-05T00:18:43.215Z,1009.15
2017-04-05T00:19:23.725Z,1009.08
2017-04-05T00:20:04.236Z,1009.03
2017-04-05T00:20:44.757Z,1009.07
2017-04-05T00:21:25.282Z,1009.04
2017-04-05T00:22:05.788Z,1009.02
2017-04-05T00:22:46.306Z,1009.03
2017-04-05T00:23:26.822Z,1009.01
2017-04-05T00:24:07.329Z,1008.97
2017-04-05T00:24:47.856Z,1008.99
2017-04-05T00:25:28.325Z,1008.95
2017-04-05T00:26:08.842Z,1008.95
2017-04-05T00:26:49.346Z,1008.97
2017-04-05T00:27:29.890Z,1008.98
2017-04-05T00:28:10.408Z,1008.96
2017-04-05T00:28:50.935Z,1008.97
2017-04-05T00:29:31.432Z,1008.96
2017-04-05T00:30:11.940Z,1008.98
2017-04-05T00:30:52.471Z,1008.98
2017-04-05T00:31:33.019Z,1009
2017-04-05T00:32:13.513Z,1008.98
2017-04-05T00:32:53.978Z,1008.89
2017-04-05T00:33:34.448Z,1008.95
2017-04-05T00:34:14.951Z,1008.92
2017-04-05T00:34:55.452Z,1008.97
2017-04-05T00:35:35.928Z,1008.97
2017-04-05T00:36:16.441Z,1008.91
2017-04-05T00:36:56.957Z,1008.95
2017-04-05T00:37:37.464Z,1008.97
2017-04-05T00:38:17.945Z,1008.93
2017-04-05T00:38:58.474Z,1008.94
2017-04-05T00:39:38.986Z,1008.93
2017-04-05T00:40:19.527Z,1008.91
2017-04-05T00:40:59.991Z,1008.92
2017-04-05T00:41:40.490Z,1008.89
2017-04-05T00:42:21.030Z,1008.89
2017-04-05T00:43:01.511Z,1008.9
2017-04-05T00:43:42.027Z,1008.9
2017-04-05T00:44:22.543Z,1008.89
2017-04-05T00:45:03.065Z,1008.88
2017-04-05T00:45:43.574Z,1008.91
2017-04-05T00:46:24.098Z,1008.93
2017-04-05T00:47:04.584Z,1008.86
2017-04-05T00:47:45.114Z,1008.87
2017-04-05T00:48:25.602Z,1008.87
2017-04-05T00:49:06.105Z,1008.87
2017-04-05T00:49:46.628Z,1008.87
2017-04-05T00:50:27.134Z,1008.91
2017-04-05T00:51:07.673Z,1008.86
2017-04-05T00:51:48.189Z,1008.79
2017-04-05T00:52:28.722Z,1008.81
2017-04-05T00:53:09.248Z,1008.82
2017-04-05T00:53:49.790Z,1008.81
2017-04-05T00:54:30.306Z,1008.83
2017-04-05T00:55:10.822Z,1008.76
2017-04-05T00:55:51.321Z,1008.75
2017-04-05T00:56:31.813Z,1008.78
2017-04-05T00:57:12.331Z,1008.79
2017-04-05T00:57:52.826Z,1008.77
2017-04-05T00:58:33.281Z,1008.78
2017-04-05T00:59:13.788Z,1008.87
2017-04-05T00:59:54.462Z,1008.75
2017-04-05T01:00:34.922Z,1008.82
2017-04-05T01:01:15.449Z,1008.81
2017-04-05T01:01:55.965Z,1008.79
2017-04-05T01:02:36.474Z,1008.84
2017-04-05T01:03:16.986Z,1008.78
2017-04-05T01:03:57.514Z,1008.76
2017-04-05T01:04:38.034Z,1008.76
2017-04-05T01:05:18.502Z,1008.79
2017-04-05T01:05:59.003Z,1008.77
2017-04-05T01:06:39.531Z,1008.81
2017-04-05T01:07:20.035Z,1008.79
2017-04-05T01:08:00.555Z,1008.8
2017-04-05T01:08:41.073Z,1008.81
2017-04-05T01:09:21.601Z,1008.79
2017-04-05T01:10:02.116Z,1008.79
2017-04-05T01:10:42.652Z,1008.8
2017-04-05T01:11:23.149Z,1008.78
2017-04-05T01:12:03.662Z,1008.83
2017-04-05T01:12:44.186Z,1008.86
2017-04-05T01:13:24.702Z,1008.82
2017-04-05T01:14:05.216Z,1008.81
2017-04-05T01:14:45.764Z,1008.82
2017-04-05T01:15:26.194Z,1008.85
2017-04-05T01:16:06.706Z,1008.85
2017-04-05T01:16:47.245Z,1008.87
2017-04-05T01:17:27.741Z,1008.8
2017-04-05T01:18:08.222Z,1008.84
2017-04-05T01:18:48.719Z,1008.83
2017-04-05T01:19:29.212Z,1008.81
2017-04-05T01:20:09.741Z,1008.81
2017-04-05T01:20:50.215Z,1008.8
2017-04-05T01:21:30.720Z,1008.81
2017-04-05T01:22:11.219Z,1008.81
2017-04-05T01:22:51.740Z,1008.78
2017-04-05T01:23:32.257Z,1008.76
2017-04-05T01:24:12.767Z,1008.84
2017-04-05T01:24:53.278Z,1008.84
2017-04-05T01:25:33.799Z,1008.87
2017-04-05T01:26:14.327Z,1008.86
2017-04-05T01:26:54.843Z,1008.84
2017-04-05T01:27:35.365Z,1008.82
2017-04-05T01:28:15.896Z,1008.87
2017-04-05T01:28:56.422Z,1008.9
2017-04-05T01:29:36.944Z,1008.81
2017-04-05T01:30:17.465Z,1008.94
2017-04-05T01:30:57.982Z,1008.89
2017-04-05T01:31:38.498Z,1008.9
2017-04-05T01:32:19.023Z,1008.89
2017-04-05T01:32:59.541Z,1008.92
2017-04-05T01:33:40.040Z,1008.88
2017-04-05T01:34:20.564Z,1008.93
2017-04-05T01:35:01.066Z,1008.85
2017-04-05T01:35:41.583Z,1008.93
2017-04-05T01:36:22.105Z,1008.89
2017-04-05T01:37:02.631Z,1008.9
2017-04-05T01:37:43.145Z,1008.87
2017-04-05T01:38:23.662Z,1008.93
2017-04-05T01:39:04.165Z,1008.92
2017-04-05T01:39:44.689Z,1008.9
2017-04-05T01:40:25.213Z,1008.92
2017-04-05T01:41:05.726Z,1008.87
2017-04-05T01:41:46.264Z,1008.88
2017-04-05T01:42:26.783Z,1008.88
2017-04-05T01:43:07.313Z,1008.86
2017-04-05T01:43:47.827Z,1008.86
2017-04-05T01:44:28.336Z,1008.87
2017-04-05T01:45:08.866Z,1008.87
2017-04-05T01:45:49.379Z,1008.91
2017-04-05T01:46:29.895Z,1008.91
2017-04-05T01:47:10.422Z,1008.87
2017-04-05T01:47:51.006Z,1008.92
2017-04-05T01:48:31.528Z,1008.87
2017-04-05T01:49:12.041Z,1008.94
2017-04-05T01:49:52.546Z,1008.94
2017-04-05T01:50:33.055Z,1008.89
2017-04-05T01:51:13.580Z,1008.84
2017-04-05T01:51:54.353Z,1008.93
2017-04-05T01:52:34.883Z,1008.91
2017-04-05T01:53:15.392Z,1008.94
2017-04-05T01:53:55.933Z,1008.91
2017-04-05T01:54:36.469Z,1008.95
2017-04-05T01:55:16.980Z,1008.94
2017-04-05T01:55:57.491Z,1008.98
2017-04-05T01:56:38.008Z,1008.91
2017-04-05T01:57:18.534Z,1008.94
2017-04-05T01:57:59.050Z,1008.95
2017-04-05T01:58:39.571Z,1008.87
2017-04-05T01:59:20.098Z,1008.9
2017-04-05T02:00:00.619Z,1008.9
2017-04-05T02:00:41.143Z,1008.83
2017-04-05T02:01:21.669Z,1008.88
2017-04-05T02:02:02.191Z,1008.88
2017-04-05T02:02:42.699Z,1008.85
2017-04-05T02:03:23.223Z,1008.88
2017-04-05T02:04:03.750Z,1008.9
2017-04-05T02:04:44.281Z,1008.92
2017-04-05T02:05:24.799Z,1008.93
2017-04-05T02:06:05.325Z,1008.98
2017-04-05T02:06:45.838Z,1008.97
2017-04-05T02:07:26.351Z,1009.02
2017-04-05T02:08:06.958Z,1008.98
2017-04-05T02:08:47.477Z,1009.03
2017-04-05T02:09:27.969Z,1009.01
2017-04-05T02:10:08.482Z,1008.98
2017-04-05T02:10:49.010Z,1009
2017-04-05T02:11:29.534Z,1008.96
2017-04-05T02:12:10.088Z,1008.93
2017-04-05T02:12:50.601Z,1008.94
2017-04-05T02:13:31.119Z,1008.94
2017-04-05T02:14:11.659Z,1008.9
2017-04-05T02:14:52.157Z,1008.91
2017-04-05T02:15:32.676Z,1008.91
2017-04-05T02:16:13.198Z,1008.92
2017-04-05T02:16:53.720Z,1008.94
2017-04-05T02:17:34.245Z,1008.95
2017-04-05T02:18:14.745Z,1008.91
2017-04-05T02:18:55.261Z,1008.92
2017-04-05T02:19:35.787Z,1008.92
2017-04-05T02:20:16.311Z,1008.88
2017-04-05T02:20:56.831Z,1008.9
2017-04-05T02:21:37.301Z,1008.89
2017-04-05T02:22:17.818Z,1008.87
2017-04-05T02:22:58.320Z,1008.9
2017-04-05T02:23:38.794Z,1008.9
2017-04-05T02:24:19.296Z,1008.85
2017-04-05T02:24:59.788Z,1008.89
2017-04-05T02:25:40.277Z,1008.95
2017-04-05T02:26:20.782Z,1008.96
2017-04-05T02:27:01.300Z,1009
2017-04-05T02:27:41.723Z,1008.98
2017-04-05T02:28:22.235Z,1008.97
2017-04-05T02:29:02.758Z,1009
2017-04-05T02:29:43.244Z,1008.97
2017-04-05T02:30:23.757Z,1008.95
2017-04-05T02:31:04.286Z,1008.93
2017-04-05T02:31:44.798Z,1008.92
2017-04-05T02:32:25.307Z,1008.97
2017-04-05T02:33:05.842Z,1009.03
2017-04-05T02:33:46.369Z,1008.99
2017-04-05T02:34:26.803Z,1009.03
2017-04-05T02:35:07.294Z,1009.02
2017-04-05T02:35:47.808Z,1009.02
2017-04-05T02:36:28.340Z,1009.05
2017-04-05T02:37:08.833Z,1009.03
2017-04-05T02:37:49.343Z,1009.06
2017-04-05T02:38:29.861Z,1009.02
2017-04-05T02:39:10.350Z,1009.06
2017-04-05T02:39:50.857Z,1009.12
2017-04-05T02:40:31.384Z,1009.11
2017-04-05T02:41:11.883Z,1009.14
2017-04-05T02:41:52.347Z,1009.17
2017-04-05T02:42:32.867Z,1009.14
2017-04-05T02:43:13.402Z,1009.18
2017-04-05T02:43:53.904Z,1009.21
2017-04-05T02:44:34.441Z,1009.2
2017-04-05T02:45:14.948Z,1009.19
2017-04-05T02:45:55.478Z,1009.15
2017-04-05T02:46:35.992Z,1009.21
2017-04-05T02:47:16.447Z,1009.23
2017-04-05T02:47:56.966Z,1009.24
2017-04-05T02:48:37.464Z,1009.18
2017-04-05T02:49:17.964Z,1009.2
2017-04-05T02:49:58.470Z,1009.21
2017-04-05T02:50:38.989Z,1009.21
2017-04-05T02:51:19.511Z,1009.22
2017-04-05T02:53:17.763Z,1009.27
2017-04-05T02:53:58.283Z,1009.29
2017-04-05T02:54:38.803Z,1009.28
2017-04-05T02:55:19.320Z,1009.26
2017-04-05T02:55:59.840Z,1009.29
2017-04-05T02:56:40.369Z,1009.3
2017-04-05T02:57:20.859Z,1009.31
2017-04-05T02:58:01.380Z,1009.33
2017-04-05T02:58:41.894Z,1009.33
2017-04-05T02:59:22.415Z,1009.34
2017-04-05T03:00:02.933Z,1009.36
2017-04-05T03:00:43.446Z,1009.41
2017-04-05T03:01:24.247Z,1009.41
2017-04-05T03:02:04.768Z,1009.37
2017-04-05T03:02:45.286Z,1009.42
2017-04-05T03:03:25.797Z,1009.43
2017-04-05T03:04:06.318Z,1009.36
2017-04-05T03:04:46.830Z,1009.4
2017-04-05T03:05:27.350Z,1009.41
2017-04-05T03:06:07.874Z,1009.4
2017-04-05T03:06:48.387Z,1009.44
2017-04-05T03:07:28.894Z,1009.45
2017-04-05T03:09:27.093Z,1009.43
2017-04-05T03:10:07.609Z,1009.38
2017-04-05T03:10:48.126Z,1009.46
2017-04-05T03:11:28.655Z,1009.42
2017-04-05T03:12:09.173Z,1009.45
2017-04-05T03:12:49.690Z,1009.41
2017-04-05T03:13:30.194Z,1009.44
2017-04-05T03:14:10.696Z,1009.41
2017-04-05T03:14:51.213Z,1009.43
2017-04-05T03:15:31.730Z,1009.39
2017-04-05T03:16:12.238Z,1009.43
2017-04-05T03:16:52.755Z,1009.46
2017-04-05T03:17:33.263Z,1009.46
2017-04-05T03:18:13.784Z,1009.43
2017-04-05T03:18:54.297Z,1009.44
2017-04-05T03:19:34.809Z,1009.42
2017-04-05T03:20:15.321Z,1009.46
2017-04-05T03:20:55.837Z,1009.47
2017-04-05T03:21:36.349Z,1009.47
2017-04-05T03:22:16.862Z,1009.5
2017-04-05T03:22:57.403Z,1009.52
2017-04-05T03:23:37.856Z,1009.49
2017-04-05T03:24:18.384Z,1009.49
2017-04-05T03:24:58.857Z,1009.51
2017-04-05T03:25:39.357Z,1009.46
2017-04-05T03:26:19.841Z,1009.52
2017-04-05T03:27:00.347Z,1009.53
2017-04-05T03:27:40.858Z,1009.56
2017-04-05T03:28:21.403Z,1009.57
2017-04-05T03:29:01.905Z,1009.62
2017-04-05T03:29:42.360Z,1009.56
2017-04-05T03:30:22.830Z,1009.58
2017-04-05T03:31:03.366Z,1009.64
2017-04-05T03:31:43.845Z,1009.59
2017-04-05T03:32:24.335Z,1009.61
2017-04-05T03:33:04.864Z,1009.65
2017-04-05T03:33:45.407Z,1009.68
2017-04-05T03:34:25.904Z,1009.66
2017-04-05T03:35:06.431Z,1009.69
2017-04-05T03:35:46.965Z,1009.72
2017-04-05T03:36:27.477Z,1009.71
2017-04-05T03:37:08.008Z,1009.76
2017-04-05T03:37:48.517Z,1009.76
2017-04-05T03:38:29.033Z,1009.74
2017-04-05T03:39:09.555Z,1009.75
2017-04-05T03:39:50.073Z,1009.76
2017-04-05T03:40:30.619Z,1009.76
2017-04-05T03:41:11.144Z,1009.78
2017-04-05T03:41:51.657Z,1009.81
2017-04-05T03:42:32.174Z,1009.76
2017-04-05T03:43:12.701Z,1009.8
2017-04-05T03:43:53.221Z,1009.71
2017-04-05T03:44:33.739Z,1009.74
2017-04-05T03:45:14.259Z,1009.68
2017-04-05T03:45:54.763Z,1009.69
2017-04-05T03:46:35.300Z,1009.7
2017-04-05T03:47:15.845Z,1009.7
2017-04-05T03:47:56.361Z,1009.71
2017-04-05T03:48:36.861Z,1009.67
2017-04-05T03:49:17.387Z,1009.7
2017-04-05T03:49:57.907Z,1009.71
2017-04-05T03:50:38.425Z,1009.72
2017-04-05T03:51:18.953Z,1009.69
2017-04-05T03:52:00.085Z,1009.72
2017-04-05T03:52:40.602Z,1009.73
2017-04-05T03:53:21.122Z,1009.76
2017-04-05T03:54:01.632Z,1009.75
2017-04-05T03:54:42.140Z,1009.69
2017-04-05T03:55:22.661Z,1009.73
2017-04-05T03:56:03.184Z,1009.78
2017-04-05T03:56:43.687Z,1009.76
2017-04-05T03:57:24.212Z,1009.73
2017-04-05T03:58:04.728Z,1009.71
2017-04-05T03:58:45.239Z,1009.76
2017-04-05T03:59:25.761Z,1009.73
2017-04-05T04:00:06.322Z,1009.79
2017-04-05T04:00:46.855Z,1009.74
2017-04-05T04:01:27.370Z,1009.71
2017-04-05T04:02:07.897Z,1009.7
2017-04-05T04:02:48.413Z,1009.74
2017-04-05T04:03:28.945Z,1009.74
2017-04-05T04:04:09.465Z,1009.72
2017-04-05T04:04:49.987Z,1009.71
2017-04-05T04:05:30.501Z,1009.72
2017-04-05T04:06:11.020Z,1009.67
2017-04-05T04:06:51.573Z,1009.67
2017-04-05T04:07:32.093Z,1009.69
2017-04-05T04:08:12.599Z,1009.65
2017-04-05T04:08:53.116Z,1009.65
2017-04-05T04:09:33.640Z,1009.63
2017-04-05T04:10:14.176Z,1009.61
2017-04-05T04:10:54.683Z,1009.68
2017-04-05T04:11:35.215Z,1009.66
2017-04-05T04:12:15.730Z,1009.68
2017-04-05T04:12:57.474Z,1009.67
2017-04-05T04:13:37.993Z,1009.67
2017-04-05T04:14:18.503Z,1009.66
2017-04-05T04:14:59.016Z,1009.66
2017-04-05T04:15:39.547Z,1009.69
2017-04-05T04:16:20.066Z,1009.68
2017-04-05T04:17:00.556Z,1009.68
2017-04-05T04:17:41.066Z,1009.66
2017-04-05T04:18:21.575Z,1009.7
2017-04-05T04:19:02.070Z,1009.7
2017-04-05T04:19:42.564Z,1009.64
2017-04-05T04:20:23.080Z,1009.67
2017-04-05T04:21:03.604Z,1009.69
2017-04-05T04:21:44.103Z,1009.73
2017-04-05T04:22:24.600Z,1009.65
2017-04-05T04:23:05.119Z,1009.67
2017-04-05T04:23:45.601Z,1009.67
2017-04-05T04:24:26.122Z,1009.67
2017-04-05T04:25:06.643Z,1009.66
2017-04-05T04:25:47.186Z,1009.71
2017-04-05T04:26:27.697Z,1009.69
2017-04-05T04:27:08.228Z,1009.73
2017-04-05T04:27:48.717Z,1009.73
2017-04-05T04:28:29.225Z,1009.73
2017-04-05T04:29:09.748Z,1009.73
2017-04-05T04:29:50.254Z,1009.74
2017-04-05T04:30:30.788Z,1009.73
2017-04-05T04:31:11.293Z,1009.71
2017-04-05T04:31:51.765Z,1009.74
2017-04-05T04:32:32.229Z,1009.74
2017-04-05T04:33:12.755Z,1009.76
2017-04-05T04:33:53.243Z,1009.77
2017-04-05T04:34:33.719Z,1009.75
2017-04-05T04:35:14.204Z,1009.76
2017-04-05T04:35:54.718Z,1009.78
2017-04-05T04:36:35.226Z,1009.77
2017-04-05T04:37:15.751Z,1009.79
2017-04-05T04:37:56.278Z,1009.82
2017-04-05T04:38:36.798Z,1009.82
2017-04-05T04:39:17.299Z,1009.79
2017-04-05T04:39:57.949Z,1009.77
2017-04-05T04:40:38.303Z,1009.79
2017-04-05T04:41:18.864Z,1009.82
2017-04-05T04:41:59.502Z,1009.85
2017-04-05T04:42:40.005Z,1009.92
2017-04-05T04:43:20.516Z,1009.86
2017-04-05T04:44:01.052Z,1009.91
2017-04-05T04:44:41.524Z,1009.94
2017-04-05T04:45:22.022Z,1009.96
2017-04-05T04:46:02.563Z,1009.97
2017-04-05T04:46:43.038Z,1009.98
2017-04-05T04:47:23.531Z,1009.99
2017-04-05T04:48:04.068Z,1010
2017-04-05T04:48:44.591Z,1010.01
2017-04-05T04:49:25.105Z,1010
2017-04-05T04:50:05.620Z,1009.93
2017-04-05T04:50:46.132Z,1010.03
2017-04-05T04:51:26.652Z,1009.99
2017-04-05T04:52:07.169Z,1010.01
2017-04-05T04:52:47.687Z,1010.01
2017-04-05T04:53:28.240Z,1009.99
2017-04-05T04:54:08.730Z,1010.02
2017-04-05T04:54:49.353Z,1010
2017-04-05T04:55:29.857Z,1010.04
2017-04-05T04:56:10.361Z,1010.05
2017-04-05T04:56:50.894Z,1010.09
2017-04-05T04:57:31.418Z,1010.12
2017-04-05T04:58:11.930Z,1010.09
2017-04-05T04:58:52.438Z,1010.1
2017-04-05T04:59:32.950Z,1010.06
2017-04-05T05:00:13.469Z,1010.11
2017-04-05T05:00:54.000Z,1010.13
2017-04-05T05:01:34.577Z,1010.15
2017-04-05T05:02:15.067Z,1010.18
2017-04-05T05:02:55.552Z,1010.17
2017-04-05T05:03:36.059Z,1010.22
2017-04-05T05:04:16.575Z,1010.2
2017-04-05T05:04:57.082Z,1010.22
2017-04-05T05:05:37.594Z,1010.2
2017-04-05T05:06:18.078Z,1010.23
2017-04-05T05:06:58.627Z,1010.2
2017-04-05T05:07:39.101Z,1010.17
2017-04-05T05:08:19.579Z,1010.21
2017-04-05T05:09:00.119Z,1010.18
2017-04-05T05:09:40.637Z,1010.23
2017-04-05T05:10:21.133Z,1010.22
2017-04-05T05:11:01.641Z,1010.24
2017-04-05T05:11:42.128Z,1010.27
2017-04-05T05:12:22.634Z,1010.24
2017-04-05T05:13:03.168Z,1010.22
2017-04-05T05:13:43.693Z,1010.21
2017-04-05T05:14:24.252Z,1010.23
2017-04-05T05:15:04.887Z,1010.19
2017-04-05T05:15:45.378Z,1010.17
2017-04-05T05:16:25.896Z,1010.19
2017-04-05T05:17:06.602Z,1010.19
2017-04-05T05:17:47.138Z,1010.19
2017-04-05T05:18:27.573Z,1010.2
2017-04-05T05:19:08.086Z,1010.14
2017-04-05T05:19:48.595Z,1010.15
2017-04-05T05:20:29.094Z,1010.15
2017-04-05T05:21:09.647Z,1010.16
2017-04-05T05:21:50.158Z,1010.1
2017-04-05T05:22:30.636Z,1010.1
2017-04-05T05:23:11.156Z,1010.13
2017-04-05T05:23:51.670Z,1010.16
2017-04-05T05:24:32.162Z,1010.17
2017-04-05T05:25:12.667Z,1010.17
2017-04-05T05:25:53.191Z,1010.25
2017-04-05T05:26:33.675Z,1010.25
2017-04-05T05:27:14.189Z,1010.23
2017-04-05T05:27:54.691Z,1010.22
2017-04-05T05:28:35.243Z,1010.27
2017-04-05T05:29:15.733Z,1010.25
2017-04-05T05:29:56.239Z,1010.24
2017-04-05T05:30:36.764Z,1010.25
2017-04-05T05:31:17.220Z,1010.23
2017-04-05T05:31:57.727Z,1010.23
2017-04-05T05:32:38.274Z,1010.26
2017-04-05T05:33:18.723Z,1010.27
2017-04-05T05:33:59.250Z,1010.23
2017-04-05T05:35:52.377Z,1010.26
2017-04-05T05:36:32.830Z,1010.27
2017-04-05T05:37:13.349Z,1010.28
2017-04-05T05:37:53.923Z,1010.28
2017-04-05T05:38:34.479Z,1010.32
2017-04-05T05:39:15.013Z,1010.34
2017-04-05T05:41:08.090Z,1010.37
2017-04-05T05:41:48.589Z,1010.39
2017-04-05T05:42:29.082Z,1010.32
2017-04-05T05:43:09.594Z,1010.32
2017-04-05T05:43:50.075Z,1010.37
2017-04-05T05:44:30.594Z,1010.34
2017-04-05T05:45:11.091Z,1010.34
2017-04-05T05:45:51.619Z,1010.39
2017-04-05T05:46:32.099Z,1010.4
2017-04-05T05:47:12.551Z,1010.4
2017-04-05T05:47:53.028Z,1010.39
2017-04-05T05:48:33.514Z,1010.39
2017-04-05T05:49:14.067Z,1010.44
2017-04-05T05:49:54.524Z,1010.46
2017-04-05T05:50:35.077Z,1010.42
2017-04-05T05:51:15.525Z,1010.47
2017-04-05T05:51:56.168Z,1010.49
2017-04-05T05:52:36.765Z,1010.53
2017-04-05T05:53:17.310Z,1010.55
2017-04-05T05:53:57.787Z,1010.55
2017-04-05T05:54:38.223Z,1010.56
2017-04-05T05:55:18.689Z,1010.59
2017-04-05T05:55:59.197Z,1010.54
2017-04-05T05:56:39.670Z,1010.58
2017-04-05T05:57:20.146Z,1010.56
2017-04-05T05:58:00.711Z,1010.58
2017-04-05T05:58:41.221Z,1010.59
2017-04-05T05:59:21.823Z,1010.56
2017-04-05T06:00:02.406Z,1010.58
2017-04-05T06:00:42.884Z,1010.61
2017-04-05T06:01:23.370Z,1010.6
2017-04-05T06:02:03.852Z,1010.6
2017-04-05T06:02:44.362Z,1010.63
2017-04-05T06:03:24.830Z,1010.59
2017-04-05T06:04:05.335Z,1010.61
2017-04-05T06:04:45.791Z,1010.62
2017-04-05T06:05:26.270Z,1010.65
2017-04-05T06:06:06.785Z,1010.62
2017-04-05T06:06:47.357Z,1010.66
2017-04-05T06:07:27.788Z,1010.66
2017-04-05T06:08:08.238Z,1010.65
2017-04-05T06:08:48.763Z,1010.65
2017-04-05T06:09:29.225Z,1010.66
2017-04-05T06:10:09.726Z,1010.68
2017-04-05T06:10:50.215Z,1010.68
2017-04-05T06:11:31.930Z,1010.68
2017-04-05T06:12:12.335Z,1010.64
2017-04-05T06:12:52.820Z,1010.7
2017-04-05T06:13:33.347Z,1010.69
2017-04-05T06:14:13.843Z,1010.68
2017-04-05T06:14:54.374Z,1010.66
2017-04-05T06:15:35.507Z,1010.69
2017-04-05T06:16:16.081Z,1010.72
2017-04-05T06:16:56.559Z,1010.72
2017-04-05T06:17:37.060Z,1010.65
2017-04-05T06:18:17.668Z,1010.66
2017-04-05T06:18:58.179Z,1010.63
2017-04-05T06:19:38.660Z,1010.66
2017-04-05T06:20:19.150Z,1010.65
2017-04-05T06:20:59.631Z,1010.68
2017-04-05T06:21:40.190Z,1010.69
2017-04-05T06:22:20.649Z,1010.7
2017-04-05T06:23:01.158Z,1010.76
2017-04-05T06:23:41.639Z,1010.76
2017-04-05T06:24:22.242Z,1010.75
2017-04-05T06:25:02.696Z,1010.79
2017-04-05T06:25:43.187Z,1010.8
2017-04-05T06:26:23.652Z,1010.79
2017-04-05T06:27:04.145Z,1010.83
2017-04-05T06:27:44.616Z,1010.85
2017-04-05T06:28:25.109Z,1010.8
2017-04-05T06:29:05.703Z,1010.79
2017-04-05T06:29:46.177Z,1010.85
2017-04-05T06:30:26.644Z,1010.83
2017-04-05T06:31:07.147Z,1010.87
2017-04-05T06:31:47.672Z,1010.81
2017-04-05T06:32:28.128Z,1010.78
2017-04-05T06:33:08.633Z,1010.84
2017-04-05T06:33:49.219Z,1010.81
2017-04-05T06:34:29.847Z,1010.86
2017-04-05T06:35:10.312Z,1010.85
2017-04-05T06:35:50.837Z,1010.81
2017-04-05T06:36:31.339Z,1010.8
2017-04-05T06:37:11.838Z,1010.81
2017-04-05T06:37:52.355Z,1010.79
2017-04-05T06:38:32.841Z,1010.83
2017-04-05T06:39:13.340Z,1010.9
2017-04-05T06:39:57.566Z,1010.84
2017-04-05T06:40:38.092Z,1010.87
2017-04-05T06:41:18.634Z,1010.92
2017-04-05T06:41:59.566Z,1010.91
2017-04-05T06:42:40.054Z,1010.96
2017-04-05T06:43:20.528Z,1010.88
2017-04-05T06:44:01.026Z,1010.94
2017-04-05T06:44:41.530Z,1010.93
2017-04-05T06:45:22.048Z,1010.91
2017-04-05T06:46:02.524Z,1010.86
2017-04-05T06:46:43.056Z,1010.94
2017-04-05T06:47:23.495Z,1010.92
2017-04-05T06:48:04.009Z,1010.94
2017-04-05T06:48:44.519Z,1010.94
2017-04-05T06:49:25.042Z,1010.89
2017-04-05T06:50:05.527Z,1010.88
2017-04-05T06:50:46.012Z,1010.9
2017-04-05T06:51:26.468Z,1010.89
2017-04-05T06:52:06.963Z,1010.9
2017-04-05T06:52:47.535Z,1010.9
2017-04-05T06:53:27.999Z,1010.91
2017-04-05T06:54:08.467Z,1010.91
2017-04-05T06:54:48.944Z,1010.89
2017-04-05T06:55:29.457Z,1010.89
2017-04-05T06:56:10.064Z,1010.92
2017-04-05T06:56:50.503Z,1010.91
2017-04-05T06:57:31.042Z,1010.9
2017-04-05T06:58:11.509Z,1010.92
2017-04-05T06:58:52.071Z,1010.87
2017-04-05T06:59:32.580Z,1010.9
2017-04-05T07:00:13.067Z,1010.89
2017-04-05T07:00:53.678Z,1010.92
2017-04-05T07:01:34.174Z,1010.95
2017-04-05T07:02:14.680Z,1010.91
2017-04-05T07:02:55.131Z,1010.91
2017-04-05T07:03:35.627Z,1010.92
2017-04-05T07:04:16.121Z,1010.89
2017-04-05T07:04:56.640Z,1010.9
2017-04-05T07:05:37.183Z,1010.92
2017-04-05T07:06:17.662Z,1010.89
2017-04-05T07:06:58.190Z,1010.92
2017-04-05T07:07:38.688Z,1010.88
2017-04-05T07:08:19.266Z,1010.88
2017-04-05T07:08:59.714Z,1010.9
2017-04-05T07:09:40.268Z,1010.91
2017-04-05T07:10:20.706Z,1010.92
2017-04-05T07:11:01.228Z,1010.93
2017-04-05T07:11:41.766Z,1010.95
2017-04-05T07:12:22.298Z,1010.95
2017-04-05T07:13:02.738Z,1010.95
2017-04-05T07:13:43.219Z,1010.98
2017-04-05T07:14:23.891Z,1010.97
2017-04-05T07:15:04.470Z,1010.97
2017-04-05T07:15:44.927Z,1010.96
2017-04-05T07:16:25.495Z,1010.97
2017-04-05T07:17:05.974Z,1010.96
2017-04-05T07:17:46.515Z,1010.98
2017-04-05T07:18:27.038Z,1010.98
2017-04-05T07:19:07.560Z,1011.01
2017-04-05T07:19:48.073Z,1010.99
2017-04-05T07:20:28.550Z,1011
2017-04-05T07:21:09.085Z,1010.96
2017-04-05T07:21:49.576Z,1010.96
2017-04-05T07:22:30.148Z,1010.98
2017-04-05T07:23:10.580Z,1010.99
2017-04-05T07:23:51.127Z,1010.96
2017-04-05T07:24:31.613Z,1010.97
2017-04-05T07:25:12.131Z,1010.96
2017-04-05T07:25:52.599Z,1011
2017-04-05T07:26:33.196Z,1010.99
2017-04-05T07:27:13.687Z,1011.01
2017-04-05T07:27:54.190Z,1011.02
2017-04-05T07:28:34.854Z,1011.05
2017-04-05T07:29:15.282Z,1011.06
2017-04-05T07:29:55.778Z,1011.02
2017-04-05T07:30:36.274Z,1011
2017-04-05T07:31:16.795Z,1011.08
2017-04-05T07:31:57.260Z,1011.07
2017-04-05T07:32:37.708Z,1011.07
2017-04-05T07:33:18.212Z,1011.09
2017-04-05T07:33:58.717Z,1011.07
2017-04-05T07:34:39.175Z,1011.08
2017-04-05T07:35:19.695Z,1011.13
2017-04-05T07:36:00.505Z,1011.12
2017-04-05T07:36:41.090Z,1011.18
2017-04-05T07:37:21.571Z,1011.15
2017-04-05T07:38:02.984Z,1011.16
2017-04-05T07:38:42.664Z,1011.15
2017-04-05T07:39:23.198Z,1011.15
2017-04-05T07:40:03.707Z,1011.17
2017-04-05T07:40:44.128Z,1011.12
2017-04-05T07:41:24.651Z,1011.13
2017-04-05T07:42:05.274Z,1011.14
2017-04-05T07:43:58.358Z,1011.06
2017-04-05T07:44:38.933Z,1011.07
2017-04-05T07:45:19.414Z,1011.1
2017-04-05T07:45:59.892Z,1011.11
2017-04-05T07:46:40.616Z,1011.16
2017-04-05T07:47:21.069Z,1011.12
2017-04-05T07:48:01.540Z,1011.19
2017-04-05T07:48:41.993Z,1011.15
2017-04-05T07:49:22.529Z,1011.15
2017-04-05T07:50:03.049Z,1011.16
2017-04-05T07:50:43.488Z,1011.1
2017-04-05T07:51:24.043Z,1011.1
2017-04-05T07:52:04.494Z,1011.11
2017-04-05T07:52:44.906Z,1011.13
2017-04-05T07:53:25.484Z,1011.12
2017-04-05T07:54:06.989Z,1011.09
2017-04-05T07:54:47.464Z,1011.14
2017-04-05T07:55:27.978Z,1011.11
2017-04-05T07:56:08.458Z,1011.09
2017-04-05T07:56:48.935Z,1011.08
2017-04-05T07:57:29.458Z,1011.11
2017-04-05T07:58:10.103Z,1011.07
2017-04-05T07:58:50.559Z,1011.08
2017-04-05T07:59:31.073Z,1011.08
2017-04-05T08:00:11.642Z,1011.07
2017-04-05T08:00:52.107Z,1011.08
2017-04-05T08:01:32.547Z,1011.08
2017-04-05T08:02:13.062Z,1011.04
2017-04-05T08:02:53.535Z,1011.03
2017-04-05T08:03:34.065Z,1011.08
2017-04-05T08:04:14.564Z,1011.08
2017-04-05T08:04:55.052Z,1011.08
2017-04-05T08:05:35.525Z,1011.1
2017-04-05T08:06:16.146Z,1011.12
2017-04-05T08:06:56.615Z,1011.12
2017-04-05T08:07:37.103Z,1011.13
2017-04-05T08:08:17.592Z,1011.16
2017-04-05T08:08:58.127Z,1011.18
2017-04-05T08:09:38.669Z,1011.15
2017-04-05T08:10:19.055Z,1011.17
2017-04-05T08:10:59.551Z,1011.2
2017-04-05T08:11:40.066Z,1011.2
2017-04-05T08:12:20.535Z,1011.21
2017-04-05T08:13:01.033Z,1011.19
2017-04-05T08:13:41.655Z,1011.17
2017-04-05T08:14:22.128Z,1011.11
2017-04-05T08:15:02.590Z,1011.13
2017-04-05T08:15:43.120Z,1011.11
2017-04-05T08:16:23.613Z,1011.14
2017-04-05T08:17:04.104Z,1011.12
2017-04-05T08:17:44.583Z,1011.13
2017-04-05T08:18:25.075Z,1011.08